MMML/MXL METAR and TAF weather

Enter ICAO airport designator
Station Type Date Time Source
MMML METAR 2021/09/16 20:47 UTC NOAA

MMML 162047Z 18005KT 10SM SKC 39/M02 A2970 RMK SLP058 57017 967


Station Type Date Time Source
MMML Decoded METAR 2021/09/16 20:47 UTC NOAA

Mexicali International Airport , Mexico (MMML) 32-38N 117-00W
Sep 16, 2021 - 04:47 PM EDT / 2021.09.16 2047 UTC
Wind: from the S (180 degrees) at 6 MPH (5 KT):0
Visibility: 10 mile(s):0
Sky conditions: clear
Temperature: 102 F (39 C)
Dew Point: 28 F (-2 C)
Relative Humidity: 7%
Pressure (altimeter): 29.7 in. Hg (1005 hPa)
Pressure tendency: 0.05 inches (1.7 hPa) lower than three hours ago
ob: MMML 162047Z 18005KT 10SM SKC 39/M02 A2970 RMK SLP058 57017 967
cycle: 21

Station Type Date Time Source
MMML TAF 2021/09/16 18:54 UTC NOAA

TAF MMML 161651Z 1618/1718 33010KT P6SM SKC
FM170300 16005KT P6SM SKC
FM171600 30010KT P6SM SKC

Example: see airport list